sensor_id;sensor_type;location;lat;lon;timestamp;pressure;altitude;pressure_sealevel;temperature
19644;BMP180;9970;-36.854;174.870;2023-05-29T00:02:05;101391.00;;;18.60
19644;BMP180;9970;-36.854;174.870;2023-05-29T00:04:38;101382.00;;;18.60
19644;BMP180;9970;-36.854;174.870;2023-05-29T00:07:11;101376.00;;;18.60
19644;BMP180;9970;-36.854;174.870;2023-05-29T00:09:44;101370.00;;;18.60
19644;BMP180;9970;-36.854;174.870;2023-05-29T00:12:17;101372.00;;;18.60
19644;BMP180;9970;-36.854;174.870;2023-05-29T00:14:50;101377.00;;;18.70
19644;BMP180;9970;-36.854;174.870;2023-05-29T00:17:23;101363.00;;;18.70
19644;BMP180;9970;-36.854;174.870;2023-05-29T00:19:56;101352.00;;;18.70
19644;BMP180;9970;-36.854;174.870;2023-05-29T00:22:30;101359.00;;;18.70
19644;BMP180;9970;-36.854;174.870;2023-05-29T00:25:03;101356.00;;;18.80
19644;BMP180;9970;-36.854;174.870;2023-05-29T00:27:36;101361.00;;;18.80
19644;BMP180;9970;-36.854;174.870;2023-05-29T00:30:10;101341.00;;;18.80
19644;BMP180;9970;-36.854;174.870;2023-05-29T00:32:43;101356.00;;;18.80
19644;BMP180;9970;-36.854;174.870;2023-05-29T00:35:17;101347.00;;;18.80
19644;BMP180;9970;-36.854;174.870;2023-05-29T00:37:50;101345.00;;;18.80
19644;BMP180;9970;-36.854;174.870;2023-05-29T00:40:23;101357.00;;;18.80
19644;BMP180;9970;-36.854;174.870;2023-05-29T00:42:55;101360.00;;;18.80
19644;BMP180;9970;-36.854;174.870;2023-05-29T00:45:31;101359.00;;;18.80
19644;BMP180;9970;-36.854;174.870;2023-05-29T00:48:06;101359.00;;;18.80
19644;BMP180;9970;-36.854;174.870;2023-05-29T00:50:39;101352.00;;;18.80
19644;BMP180;9970;-36.854;174.870;2023-05-29T00:53:13;101349.00;;;18.80
19644;BMP180;9970;-36.854;174.870;2023-05-29T00:55:46;101345.00;;;18.80
19644;BMP180;9970;-36.854;174.870;2023-05-29T00:58:19;101342.00;;;18.80
19644;BMP180;9970;-36.854;174.870;2023-05-29T01:00:52;101333.00;;;18.80
19644;BMP180;9970;-36.854;174.870;2023-05-29T01:03:26;101340.00;;;18.80
19644;BMP180;9970;-36.854;174.870;2023-05-29T01:05:59;101342.00;;;18.80
19644;BMP180;9970;-36.854;174.870;2023-05-29T01:08:33;101328.00;;;18.80
19644;BMP180;9970;-36.854;174.870;2023-05-29T01:14:00;101323.00;;;18.90
19644;BMP180;9970;-36.854;174.870;2023-05-29T01:16:51;101328.00;;;18.90
19644;BMP180;9970;-36.854;174.870;2023-05-29T01:19:39;101329.00;;;18.90
19644;BMP180;9970;-36.854;174.870;2023-05-29T01:22:12;101310.00;;;18.90
19644;BMP180;9970;-36.854;174.870;2023-05-29T01:24:58;101315.00;;;18.90
19644;BMP180;9970;-36.854;174.870;2023-05-29T01:27:32;101311.00;;;18.90
19644;BMP180;9970;-36.854;174.870;2023-05-29T01:30:07;101316.00;;;18.90
19644;BMP180;9970;-36.854;174.870;2023-05-29T01:32:40;101306.00;;;18.90
19644;BMP180;9970;-36.854;174.870;2023-05-29T01:35:13;101313.00;;;18.90
19644;BMP180;9970;-36.854;174.870;2023-05-29T01:37:46;101318.00;;;18.90
19644;BMP180;9970;-36.854;174.870;2023-05-29T01:40:19;101320.00;;;18.90
19644;BMP180;9970;-36.854;174.870;2023-05-29T01:42:52;101321.00;;;18.90
19644;BMP180;9970;-36.854;174.870;2023-05-29T01:45:29;101319.00;;;18.90
19644;BMP180;9970;-36.854;174.870;2023-05-29T01:48:02;101323.00;;;18.90
19644;BMP180;9970;-36.854;174.870;2023-05-29T01:50:36;101311.00;;;19.00
19644;BMP180;9970;-36.854;174.870;2023-05-29T01:53:10;101312.00;;;19.00
19644;BMP180;9970;-36.854;174.870;2023-05-29T01:55:43;101309.00;;;18.90
19644;BMP180;9970;-36.854;174.870;2023-05-29T01:58:17;101312.00;;;19.00
19644;BMP180;9970;-36.854;174.870;2023-05-29T02:00:50;101316.00;;;19.00
19644;BMP180;9970;-36.854;174.870;2023-05-29T02:03:23;101317.00;;;19.00
19644;BMP180;9970;-36.854;174.870;2023-05-29T02:05:58;101325.00;;;19.00
19644;BMP180;9970;-36.854;174.870;2023-05-29T02:08:31;101320.00;;;19.00
19644;BMP180;9970;-36.854;174.870;2023-05-29T02:11:06;101313.00;;;19.00
19644;BMP180;9970;-36.854;174.870;2023-05-29T02:13:40;101314.00;;;19.00
19644;BMP180;9970;-36.854;174.870;2023-05-29T02:16:12;101313.00;;;19.00
19644;BMP180;9970;-36.854;174.870;2023-05-29T02:18:46;101311.00;;;19.00
19644;BMP180;9970;-36.854;174.870;2023-05-29T02:21:19;101320.00;;;19.00
19644;BMP180;9970;-36.854;174.870;2023-05-29T02:23:52;101326.00;;;19.00
19644;BMP180;9970;-36.854;174.870;2023-05-29T02:26:25;101318.00;;;19.00
19644;BMP180;9970;-36.854;174.870;2023-05-29T02:28:59;101318.00;;;19.00
19644;BMP180;9970;-36.854;174.870;2023-05-29T02:31:33;101314.00;;;19.00
19644;BMP180;9970;-36.854;174.870;2023-05-29T02:34:07;101316.00;;;19.00
19644;BMP180;9970;-36.854;174.870;2023-05-29T02:36:40;101313.00;;;19.00
19644;BMP180;9970;-36.854;174.870;2023-05-29T02:39:13;101320.00;;;19.00
19644;BMP180;9970;-36.854;174.870;2023-05-29T02:41:46;101319.00;;;19.00
19644;BMP180;9970;-36.854;174.870;2023-05-29T02:44:19;101322.00;;;19.00
19644;BMP180;9970;-36.854;174.870;2023-05-29T02:46:51;101325.00;;;19.00
19644;BMP180;9970;-36.854;174.870;2023-05-29T02:49:24;101317.00;;;19.00
19644;BMP180;9970;-36.854;174.870;2023-05-29T02:51:58;101318.00;;;19.10
19644;BMP180;9970;-36.854;174.870;2023-05-29T02:54:30;101313.00;;;19.00
19644;BMP180;9970;-36.854;174.870;2023-05-29T02:57:04;101310.00;;;19.00
19644;BMP180;9970;-36.854;174.870;2023-05-29T02:59:40;101306.00;;;19.00
19644;BMP180;9970;-36.854;174.870;2023-05-29T03:02:15;101302.00;;;19.00
19644;BMP180;9970;-36.854;174.870;2023-05-29T03:04:48;101296.00;;;19.00
19644;BMP180;9970;-36.854;174.870;2023-05-29T03:07:22;101296.00;;;19.00
19644;BMP180;9970;-36.854;174.870;2023-05-29T03:09:55;101297.00;;;18.90
19644;BMP180;9970;-36.854;174.870;2023-05-29T03:12:29;101296.00;;;18.90
19644;BMP180;9970;-36.854;174.870;2023-05-29T03:15:01;101300.00;;;18.90
19644;BMP180;9970;-36.854;174.870;2023-05-29T03:17:34;101300.00;;;18.80
19644;BMP180;9970;-36.854;174.870;2023-05-29T03:20:09;101294.00;;;18.80
19644;BMP180;9970;-36.854;174.870;2023-05-29T03:22:42;101300.00;;;18.80
19644;BMP180;9970;-36.854;174.870;2023-05-29T03:25:15;101293.00;;;18.80
19644;BMP180;9970;-36.854;174.870;2023-05-29T03:27:48;101298.00;;;18.70
19644;BMP180;9970;-36.854;174.870;2023-05-29T03:30:21;101299.00;;;18.70
19644;BMP180;9970;-36.854;174.870;2023-05-29T03:32:54;101294.00;;;18.70
19644;BMP180;9970;-36.854;174.870;2023-05-29T03:35:26;101294.00;;;18.70
19644;BMP180;9970;-36.854;174.870;2023-05-29T03:38:03;101298.00;;;18.70
19644;BMP180;9970;-36.854;174.870;2023-05-29T03:40:36;101303.00;;;18.60
19644;BMP180;9970;-36.854;174.870;2023-05-29T03:43:09;101299.00;;;18.60
19644;BMP180;9970;-36.854;174.870;2023-05-29T03:45:41;101304.00;;;18.60
19644;BMP180;9970;-36.854;174.870;2023-05-29T03:48:15;101311.00;;;18.60
19644;BMP180;9970;-36.854;174.870;2023-05-29T03:50:47;101309.00;;;18.50
19644;BMP180;9970;-36.854;174.870;2023-05-29T03:53:24;101307.00;;;18.50
19644;BMP180;9970;-36.854;174.870;2023-05-29T03:55:57;101309.00;;;18.50
19644;BMP180;9970;-36.854;174.870;2023-05-29T03:58:30;101313.00;;;18.50
19644;BMP180;9970;-36.854;174.870;2023-05-29T04:01:03;101308.00;;;18.50
19644;BMP180;9970;-36.854;174.870;2023-05-29T04:03:35;101314.00;;;18.50
19644;BMP180;9970;-36.854;174.870;2023-05-29T04:06:09;101315.00;;;18.50
19644;BMP180;9970;-36.854;174.870;2023-05-29T04:08:42;101322.00;;;18.50
19644;BMP180;9970;-36.854;174.870;2023-05-29T04:11:15;101316.00;;;18.50
19644;BMP180;9970;-36.854;174.870;2023-05-29T04:13:48;101323.00;;;18.50
19644;BMP180;9970;-36.854;174.870;2023-05-29T04:16:21;101320.00;;;18.50
19644;BMP180;9970;-36.854;174.870;2023-05-29T04:18:53;101328.00;;;18.50
19644;BMP180;9970;-36.854;174.870;2023-05-29T04:21:27;101325.00;;;18.50
19644;BMP180;9970;-36.854;174.870;2023-05-29T04:24:04;101334.00;;;18.50
19644;BMP180;9970;-36.854;174.870;2023-05-29T04:26:38;101317.00;;;18.40
19644;BMP180;9970;-36.854;174.870;2023-05-29T04:29:13;101322.00;;;18.40
19644;BMP180;9970;-36.854;174.870;2023-05-29T04:31:46;101320.00;;;18.40
19644;BMP180;9970;-36.854;174.870;2023-05-29T04:34:19;101321.00;;;18.40
19644;BMP180;9970;-36.854;174.870;2023-05-29T04:36:52;101312.00;;;18.40
19644;BMP180;9970;-36.854;174.870;2023-05-29T04:39:25;101307.00;;;18.40
19644;BMP180;9970;-36.854;174.870;2023-05-29T04:41:58;101305.00;;;18.40
19644;BMP180;9970;-36.854;174.870;2023-05-29T04:44:31;101309.00;;;18.40
19644;BMP180;9970;-36.854;174.870;2023-05-29T04:47:05;101315.00;;;18.40
19644;BMP180;9970;-36.854;174.870;2023-05-29T04:49:39;101313.00;;;18.30
19644;BMP180;9970;-36.854;174.870;2023-05-29T04:52:12;101314.00;;;18.30
19644;BMP180;9970;-36.854;174.870;2023-05-29T04:54:46;101322.00;;;18.30
19644;BMP180;9970;-36.854;174.870;2023-05-29T04:57:19;101322.00;;;18.30
19644;BMP180;9970;-36.854;174.870;2023-05-29T04:59:54;101318.00;;;18.30
19644;BMP180;9970;-36.854;174.870;2023-05-29T05:02:27;101323.00;;;18.20
19644;BMP180;9970;-36.854;174.870;2023-05-29T05:05:00;101310.00;;;18.20
19644;BMP180;9970;-36.854;174.870;2023-05-29T05:07:33;101320.00;;;18.20
19644;BMP180;9970;-36.854;174.870;2023-05-29T05:10:07;101322.00;;;18.20
19644;BMP180;9970;-36.854;174.870;2023-05-29T05:12:39;101325.00;;;18.20
19644;BMP180;9970;-36.854;174.870;2023-05-29T05:15:14;101325.00;;;18.20
19644;BMP180;9970;-36.854;174.870;2023-05-29T05:17:47;101319.00;;;18.20
19644;BMP180;9970;-36.854;174.870;2023-05-29T05:20:21;101320.00;;;18.20
19644;BMP180;9970;-36.854;174.870;2023-05-29T05:22:54;101310.00;;;18.20
19644;BMP180;9970;-36.854;174.870;2023-05-29T05:25:27;101322.00;;;18.20
19644;BMP180;9970;-36.854;174.870;2023-05-29T05:28:00;101321.00;;;18.20
19644;BMP180;9970;-36.854;174.870;2023-05-29T05:30:36;101318.00;;;18.20
19644;BMP180;9970;-36.854;174.870;2023-05-29T05:33:09;101312.00;;;18.20
19644;BMP180;9970;-36.854;174.870;2023-05-29T05:35:42;101316.00;;;18.20
19644;BMP180;9970;-36.854;174.870;2023-05-29T05:38:15;101323.00;;;18.20
19644;BMP180;9970;-36.854;174.870;2023-05-29T05:40:49;101321.00;;;18.20
19644;BMP180;9970;-36.854;174.870;2023-05-29T05:43:22;101334.00;;;18.20
19644;BMP180;9970;-36.854;174.870;2023-05-29T05:45:56;101331.00;;;18.20
19644;BMP180;9970;-36.854;174.870;2023-05-29T05:48:29;101339.00;;;18.20
19644;BMP180;9970;-36.854;174.870;2023-05-29T05:51:02;101338.00;;;18.20
19644;BMP180;9970;-36.854;174.870;2023-05-29T05:53:36;101349.00;;;18.20
19644;BMP180;9970;-36.854;174.870;2023-05-29T05:56:10;101335.00;;;18.20
19644;BMP180;9970;-36.854;174.870;2023-05-29T05:58:43;101332.00;;;18.20
19644;BMP180;9970;-36.854;174.870;2023-05-29T06:01:15;101341.00;;;18.20
19644;BMP180;9970;-36.854;174.870;2023-05-29T06:03:49;101340.00;;;18.20
19644;BMP180;9970;-36.854;174.870;2023-05-29T06:06:22;101348.00;;;18.20
19644;BMP180;9970;-36.854;174.870;2023-05-29T06:08:55;101347.00;;;18.20
19644;BMP180;9970;-36.854;174.870;2023-05-29T06:11:29;101346.00;;;18.10
19644;BMP180;9970;-36.854;174.870;2023-05-29T06:14:02;101348.00;;;18.10
19644;BMP180;9970;-36.854;174.870;2023-05-29T06:16:35;101367.00;;;18.10
19644;BMP180;9970;-36.854;174.870;2023-05-29T06:19:08;101364.00;;;18.10
19644;BMP180;9970;-36.854;174.870;2023-05-29T06:21:41;101363.00;;;18.20
19644;BMP180;9970;-36.854;174.870;2023-05-29T06:24:14;101360.00;;;18.20
19644;BMP180;9970;-36.854;174.870;2023-05-29T06:26:47;101367.00;;;18.20
19644;BMP180;9970;-36.854;174.870;2023-05-29T06:29:21;101368.00;;;18.20
19644;BMP180;9970;-36.854;174.870;2023-05-29T06:31:57;101376.00;;;18.20
19644;BMP180;9970;-36.854;174.870;2023-05-29T06:34:30;101373.00;;;18.20
19644;BMP180;9970;-36.854;174.870;2023-05-29T06:37:02;101379.00;;;18.20
19644;BMP180;9970;-36.854;174.870;2023-05-29T06:39:36;101387.00;;;18.20
19644;BMP180;9970;-36.854;174.870;2023-05-29T06:42:10;101382.00;;;18.20
19644;BMP180;9970;-36.854;174.870;2023-05-29T06:44:43;101390.00;;;18.10
19644;BMP180;9970;-36.854;174.870;2023-05-29T06:47:16;101393.00;;;18.10
19644;BMP180;9970;-36.854;174.870;2023-05-29T06:49:49;101395.00;;;18.10
19644;BMP180;9970;-36.854;174.870;2023-05-29T06:52:22;101407.00;;;18.10
19644;BMP180;9970;-36.854;174.870;2023-05-29T06:54:56;101404.00;;;18.10
19644;BMP180;9970;-36.854;174.870;2023-05-29T06:57:28;101400.00;;;18.10
19644;BMP180;9970;-36.854;174.870;2023-05-29T07:00:01;101405.00;;;18.10
19644;BMP180;9970;-36.854;174.870;2023-05-29T07:02:36;101405.00;;;18.10
19644;BMP180;9970;-36.854;174.870;2023-05-29T07:05:09;101406.00;;;18.10
19644;BMP180;9970;-36.854;174.870;2023-05-29T07:07:42;101406.00;;;18.10
19644;BMP180;9970;-36.854;174.870;2023-05-29T07:10:14;101405.00;;;18.10
19644;BMP180;9970;-36.854;174.870;2023-05-29T07:12:47;101391.00;;;18.10
19644;BMP180;9970;-36.854;174.870;2023-05-29T07:15:20;101385.00;;;18.10
19644;BMP180;9970;-36.854;174.870;2023-05-29T07:17:53;101392.00;;;18.10
19644;BMP180;9970;-36.854;174.870;2023-05-29T07:20:26;101404.00;;;18.10
19644;BMP180;9970;-36.854;174.870;2023-05-29T07:22:59;101400.00;;;18.10
19644;BMP180;9970;-36.854;174.870;2023-05-29T07:25:35;101406.00;;;18.10
19644;BMP180;9970;-36.854;174.870;2023-05-29T07:28:07;101404.00;;;18.10
19644;BMP180;9970;-36.854;174.870;2023-05-29T07:30:41;101409.00;;;18.10
19644;BMP180;9970;-36.854;174.870;2023-05-29T07:33:14;101406.00;;;18.10
19644;BMP180;9970;-36.854;174.870;2023-05-29T07:35:47;101411.00;;;18.10
19644;BMP180;9970;-36.854;174.870;2023-05-29T07:38:20;101407.00;;;18.10
19644;BMP180;9970;-36.854;174.870;2023-05-29T07:40:53;101409.00;;;18.10
19644;BMP180;9970;-36.854;174.870;2023-05-29T07:43:26;101414.00;;;18.10
19644;BMP180;9970;-36.854;174.870;2023-05-29T07:45:59;101410.00;;;18.10
19644;BMP180;9970;-36.854;174.870;2023-05-29T07:48:32;101412.00;;;18.00
19644;BMP180;9970;-36.854;174.870;2023-05-29T07:51:05;101418.00;;;18.00
19644;BMP180;9970;-36.854;174.870;2023-05-29T07:53:40;101419.00;;;18.00
19644;BMP180;9970;-36.854;174.870;2023-05-29T07:56:13;101418.00;;;18.00
19644;BMP180;9970;-36.854;174.870;2023-05-29T07:58:47;101412.00;;;17.90
19644;BMP180;9970;-36.854;174.870;2023-05-29T08:01:21;101414.00;;;17.90
19644;BMP180;9970;-36.854;174.870;2023-05-29T08:03:54;101415.00;;;17.90
19644;BMP180;9970;-36.854;174.870;2023-05-29T08:06:28;101413.00;;;17.90
19644;BMP180;9970;-36.854;174.870;2023-05-29T08:09:02;101419.00;;;17.90
19644;BMP180;9970;-36.854;174.870;2023-05-29T08:11:39;101416.00;;;17.90
19644;BMP180;9970;-36.854;174.870;2023-05-29T08:14:12;101423.00;;;17.90
19644;BMP180;9970;-36.854;174.870;2023-05-29T08:16:45;101425.00;;;17.90
19644;BMP180;9970;-36.854;174.870;2023-05-29T08:19:18;101420.00;;;17.90
19644;BMP180;9970;-36.854;174.870;2023-05-29T08:21:51;101424.00;;;17.90
19644;BMP180;9970;-36.854;174.870;2023-05-29T08:24:24;101431.00;;;17.90
19644;BMP180;9970;-36.854;174.870;2023-05-29T08:26:57;101428.00;;;17.90
19644;BMP180;9970;-36.854;174.870;2023-05-29T08:29:30;101431.00;;;17.80
19644;BMP180;9970;-36.854;174.870;2023-05-29T08:32:03;101432.00;;;17.90
19644;BMP180;9970;-36.854;174.870;2023-05-29T08:34:36;101425.00;;;17.90
19644;BMP180;9970;-36.854;174.870;2023-05-29T08:37:11;101435.00;;;17.90
19644;BMP180;9970;-36.854;174.870;2023-05-29T08:39:44;101430.00;;;17.90
19644;BMP180;9970;-36.854;174.870;2023-05-29T08:42:32;101421.00;;;17.80
19644;BMP180;9970;-36.854;174.870;2023-05-29T08:45:04;101425.00;;;17.80
19644;BMP180;9970;-36.854;174.870;2023-05-29T08:47:37;101425.00;;;17.80
19644;BMP180;9970;-36.854;174.870;2023-05-29T08:50:14;101420.00;;;17.80
19644;BMP180;9970;-36.854;174.870;2023-05-29T08:52:48;101428.00;;;17.80
19644;BMP180;9970;-36.854;174.870;2023-05-29T08:55:22;101437.00;;;17.80
19644;BMP180;9970;-36.854;174.870;2023-05-29T08:57:54;101440.00;;;17.80
19644;BMP180;9970;-36.854;174.870;2023-05-29T09:00:28;101430.00;;;17.70
19644;BMP180;9970;-36.854;174.870;2023-05-29T09:03:01;101446.00;;;17.70
19644;BMP180;9970;-36.854;174.870;2023-05-29T09:05:35;101442.00;;;17.70
19644;BMP180;9970;-36.854;174.870;2023-05-29T09:08:12;101441.00;;;17.70
19644;BMP180;9970;-36.854;174.870;2023-05-29T09:10:46;101432.00;;;17.70
19644;BMP180;9970;-36.854;174.870;2023-05-29T09:13:19;101448.00;;;17.70
19644;BMP180;9970;-36.854;174.870;2023-05-29T09:15:56;101449.00;;;17.70
19644;BMP180;9970;-36.854;174.870;2023-05-29T09:18:32;101442.00;;;17.70
19644;BMP180;9970;-36.854;174.870;2023-05-29T09:21:08;101442.00;;;17.70
19644;BMP180;9970;-36.854;174.870;2023-05-29T09:23:41;101452.00;;;17.70
19644;BMP180;9970;-36.854;174.870;2023-05-29T09:26:14;101445.00;;;17.70
19644;BMP180;9970;-36.854;174.870;2023-05-29T09:28:48;101441.00;;;17.70
19644;BMP180;9970;-36.854;174.870;2023-05-29T09:31:21;101445.00;;;17.70
19644;BMP180;9970;-36.854;174.870;2023-05-29T09:33:54;101443.00;;;17.70
19644;BMP180;9970;-36.854;174.870;2023-05-29T09:36:27;101440.00;;;17.70
19644;BMP180;9970;-36.854;174.870;2023-05-29T09:39:01;101441.00;;;17.70
19644;BMP180;9970;-36.854;174.870;2023-05-29T09:41:42;101455.00;;;17.70
19644;BMP180;9970;-36.854;174.870;2023-05-29T09:44:16;101456.00;;;17.70
19644;BMP180;9970;-36.854;174.870;2023-05-29T09:46:50;101447.00;;;17.70
19644;BMP180;9970;-36.854;174.870;2023-05-29T09:49:23;101455.00;;;17.70
19644;BMP180;9970;-36.854;174.870;2023-05-29T09:51:57;101458.00;;;17.70
19644;BMP180;9970;-36.854;174.870;2023-05-29T09:54:30;101456.00;;;17.70
19644;BMP180;9970;-36.854;174.870;2023-05-29T09:57:08;101462.00;;;17.70
19644;BMP180;9970;-36.854;174.870;2023-05-29T09:59:46;101467.00;;;17.70
19644;BMP180;9970;-36.854;174.870;2023-05-29T10:02:20;101457.00;;;17.70
19644;BMP180;9970;-36.854;174.870;2023-05-29T10:04:53;101458.00;;;17.70
19644;BMP180;9970;-36.854;174.870;2023-05-29T10:07:29;101465.00;;;17.60
19644;BMP180;9970;-36.854;174.870;2023-05-29T10:10:07;101469.00;;;17.60
19644;BMP180;9970;-36.854;174.870;2023-05-29T10:12:45;101460.00;;;17.60
19644;BMP180;9970;-36.854;174.870;2023-05-29T10:15:18;101460.00;;;17.60
19644;BMP180;9970;-36.854;174.870;2023-05-29T10:18:02;101454.00;;;17.60
19644;BMP180;9970;-36.854;174.870;2023-05-29T10:20:30;101464.00;;;17.60
19644;BMP180;9970;-36.854;174.870;2023-05-29T10:23:07;101467.00;;;17.60
19644;BMP180;9970;-36.854;174.870;2023-05-29T10:25:42;101461.00;;;17.60
19644;BMP180;9970;-36.854;174.870;2023-05-29T10:28:16;101458.00;;;17.60
19644;BMP180;9970;-36.854;174.870;2023-05-29T10:31:00;101454.00;;;17.60
19644;BMP180;9970;-36.854;174.870;2023-05-29T10:36:21;101447.00;;;17.50
19644;BMP180;9970;-36.854;174.870;2023-05-29T10:38:56;101452.00;;;17.50
19644;BMP180;9970;-36.854;174.870;2023-05-29T10:41:30;101454.00;;;17.50
19644;BMP180;9970;-36.854;174.870;2023-05-29T10:44:04;101455.00;;;17.50
19644;BMP180;9970;-36.854;174.870;2023-05-29T10:49:20;101466.00;;;17.50
19644;BMP180;9970;-36.854;174.870;2023-05-29T10:51:53;101460.00;;;17.50
19644;BMP180;9970;-36.854;174.870;2023-05-29T10:54:26;101461.00;;;17.50
19644;BMP180;9970;-36.854;174.870;2023-05-29T10:57:01;101456.00;;;17.50
19644;BMP180;9970;-36.854;174.870;2023-05-29T10:59:36;101460.00;;;17.50
19644;BMP180;9970;-36.854;174.870;2023-05-29T11:02:10;101457.00;;;17.50
19644;BMP180;9970;-36.854;174.870;2023-05-29T11:04:43;101458.00;;;17.50
19644;BMP180;9970;-36.854;174.870;2023-05-29T11:07:35;101460.00;;;17.50
19644;BMP180;9970;-36.854;174.870;2023-05-29T11:10:15;101460.00;;;17.50
19644;BMP180;9970;-36.854;174.870;2023-05-29T11:12:57;101453.00;;;17.40
19644;BMP180;9970;-36.854;174.870;2023-05-29T11:15:31;101446.00;;;17.40
19644;BMP180;9970;-36.854;174.870;2023-05-29T11:18:08;101451.00;;;17.40
19644;BMP180;9970;-36.854;174.870;2023-05-29T11:20:50;101449.00;;;17.40
19644;BMP180;9970;-36.854;174.870;2023-05-29T11:23:23;101444.00;;;17.40
19644;BMP180;9970;-36.854;174.870;2023-05-29T11:25:57;101443.00;;;17.40
19644;BMP180;9970;-36.854;174.870;2023-05-29T11:28:37;101442.00;;;17.40
19644;BMP180;9970;-36.854;174.870;2023-05-29T11:31:10;101450.00;;;17.40
19644;BMP180;9970;-36.854;174.870;2023-05-29T11:33:47;101445.00;;;17.40
19644;BMP180;9970;-36.854;174.870;2023-05-29T11:36:19;101439.00;;;17.40
19644;BMP180;9970;-36.854;174.870;2023-05-29T11:38:53;101442.00;;;17.40
19644;BMP180;9970;-36.854;174.870;2023-05-29T11:41:26;101440.00;;;17.40
19644;BMP180;9970;-36.854;174.870;2023-05-29T11:44:02;101429.00;;;17.40
19644;BMP180;9970;-36.854;174.870;2023-05-29T11:46:37;101447.00;;;17.30
19644;BMP180;9970;-36.854;174.870;2023-05-29T11:49:09;101447.00;;;17.30
19644;BMP180;9970;-36.854;174.870;2023-05-29T11:51:43;101449.00;;;17.30
19644;BMP180;9970;-36.854;174.870;2023-05-29T11:54:19;101448.00;;;17.30
19644;BMP180;9970;-36.854;174.870;2023-05-29T11:56:50;101446.00;;;17.30
19644;BMP180;9970;-36.854;174.870;2023-05-29T11:59:24;101445.00;;;17.30
19644;BMP180;9970;-36.854;174.870;2023-05-29T12:01:57;101452.00;;;17.30
19644;BMP180;9970;-36.854;174.870;2023-05-29T12:04:29;101455.00;;;17.30
19644;BMP180;9970;-36.854;174.870;2023-05-29T12:07:15;101453.00;;;17.30
19644;BMP180;9970;-36.854;174.870;2023-05-29T12:09:36;101446.00;;;17.20
19644;BMP180;9970;-36.854;174.870;2023-05-29T12:12:12;101450.00;;;17.20
19644;BMP180;9970;-36.854;174.870;2023-05-29T12:14:44;101448.00;;;17.20
19644;BMP180;9970;-36.854;174.870;2023-05-29T12:17:18;101453.00;;;17.20
19644;BMP180;9970;-36.854;174.870;2023-05-29T12:19:51;101459.00;;;17.20
19644;BMP180;9970;-36.854;174.870;2023-05-29T12:22:37;101457.00;;;17.20
19644;BMP180;9970;-36.854;174.870;2023-05-29T12:25:11;101461.00;;;17.20
19644;BMP180;9970;-36.854;174.870;2023-05-29T12:27:45;101457.00;;;17.20
19644;BMP180;9970;-36.854;174.870;2023-05-29T12:30:22;101463.00;;;17.20
19644;BMP180;9970;-36.854;174.870;2023-05-29T12:32:56;101467.00;;;17.20
19644;BMP180;9970;-36.854;174.870;2023-05-29T12:35:31;101462.00;;;17.20
19644;BMP180;9970;-36.854;174.870;2023-05-29T12:38:05;101454.00;;;17.20
19644;BMP180;9970;-36.854;174.870;2023-05-29T12:40:39;101458.00;;;17.20
19644;BMP180;9970;-36.854;174.870;2023-05-29T12:43:12;101460.00;;;17.20
19644;BMP180;9970;-36.854;174.870;2023-05-29T12:45:45;101454.00;;;17.20
19644;BMP180;9970;-36.854;174.870;2023-05-29T12:48:18;101446.00;;;17.20
19644;BMP180;9970;-36.854;174.870;2023-05-29T12:50:52;101450.00;;;17.10
19644;BMP180;9970;-36.854;174.870;2023-05-29T12:53:28;101447.00;;;17.10
19644;BMP180;9970;-36.854;174.870;2023-05-29T12:56:00;101454.00;;;17.10
19644;BMP180;9970;-36.854;174.870;2023-05-29T12:58:33;101445.00;;;17.10
19644;BMP180;9970;-36.854;174.870;2023-05-29T13:01:11;101443.00;;;17.00
19644;BMP180;9970;-36.854;174.870;2023-05-29T13:03:40;101437.00;;;17.00
19644;BMP180;9970;-36.854;174.870;2023-05-29T13:06:13;101425.00;;;17.00
19644;BMP180;9970;-36.854;174.870;2023-05-29T13:08:46;101435.00;;;17.00
19644;BMP180;9970;-36.854;174.870;2023-05-29T13:11:19;101443.00;;;17.00
19644;BMP180;9970;-36.854;174.870;2023-05-29T13:13:53;101440.00;;;17.00
19644;BMP180;9970;-36.854;174.870;2023-05-29T13:16:25;101433.00;;;17.00
19644;BMP180;9970;-36.854;174.870;2023-05-29T13:18:58;101438.00;;;16.90
19644;BMP180;9970;-36.854;174.870;2023-05-29T13:21:31;101425.00;;;16.90
19644;BMP180;9970;-36.854;174.870;2023-05-29T13:24:04;101419.00;;;16.90
19644;BMP180;9970;-36.854;174.870;2023-05-29T13:26:41;101425.00;;;16.90
19644;BMP180;9970;-36.854;174.870;2023-05-29T13:29:14;101427.00;;;16.90
19644;BMP180;9970;-36.854;174.870;2023-05-29T13:31:47;101430.00;;;16.80
19644;BMP180;9970;-36.854;174.870;2023-05-29T13:34:20;101428.00;;;16.80
19644;BMP180;9970;-36.854;174.870;2023-05-29T13:36:54;101428.00;;;16.80
19644;BMP180;9970;-36.854;174.870;2023-05-29T13:39:27;101421.00;;;16.80
19644;BMP180;9970;-36.854;174.870;2023-05-29T13:42:01;101426.00;;;16.80
19644;BMP180;9970;-36.854;174.870;2023-05-29T13:44:34;101432.00;;;16.70
19644;BMP180;9970;-36.854;174.870;2023-05-29T13:47:07;101433.00;;;16.70
19644;BMP180;9970;-36.854;174.870;2023-05-29T13:49:40;101432.00;;;16.70
19644;BMP180;9970;-36.854;174.870;2023-05-29T13:52:13;101430.00;;;16.70
19644;BMP180;9970;-36.854;174.870;2023-05-29T13:54:47;101440.00;;;16.70
19644;BMP180;9970;-36.854;174.870;2023-05-29T13:57:20;101439.00;;;16.70
19644;BMP180;9970;-36.854;174.870;2023-05-29T13:59:53;101448.00;;;16.70
19644;BMP180;9970;-36.854;174.870;2023-05-29T14:02:26;101447.00;;;16.70
19644;BMP180;9970;-36.854;174.870;2023-05-29T14:05:00;101446.00;;;16.70
19644;BMP180;9970;-36.854;174.870;2023-05-29T14:07:33;101441.00;;;16.70
19644;BMP180;9970;-36.854;174.870;2023-05-29T14:10:06;101438.00;;;16.60
19644;BMP180;9970;-36.854;174.870;2023-05-29T14:12:40;101442.00;;;16.60
19644;BMP180;9970;-36.854;174.870;2023-05-29T14:15:13;101445.00;;;16.60
19644;BMP180;9970;-36.854;174.870;2023-05-29T14:17:46;101452.00;;;16.60